createdAt,value
2023-06-25T04:00:31.728Z,1000.10
2023-06-25T04:05:31.656Z,1000.13
2023-06-25T04:10:31.601Z,1000.14
2023-06-25T04:15:38.967Z,1000.06
2023-06-25T04:20:31.508Z,1000.10
2023-06-25T04:25:31.447Z,1000.15
2023-06-25T04:30:31.389Z,1000.14
2023-06-25T04:35:32.637Z,1000.13
2023-06-25T04:40:31.285Z,1000.13
2023-06-25T04:45:31.244Z,1000.16
2023-06-25T04:50:31.189Z,1000.19
2023-06-25T04:55:31.155Z,1000.10
2023-06-25T05:00:31.071Z,1000.13
2023-06-25T05:05:31.022Z,1000.11
2023-06-25T05:10:30.971Z,1000.15
2023-06-25T05:15:30.945Z,1000.14
2023-06-25T05:20:30.870Z,1000.12
2023-06-25T05:25:30.913Z,1000.24
2023-06-25T05:30:33.073Z,1000.24
2023-06-25T05:35:30.738Z,1000.20
2023-06-25T05:40:30.659Z,1000.14
2023-06-25T05:45:30.605Z,1000.28
2023-06-25T05:50:30.577Z,1000.13
2023-06-25T05:55:30.604Z,1000.16
2023-06-25T06:00:30.529Z,1000.22
2023-06-25T06:05:30.413Z,1000.21
2023-06-25T06:10:30.361Z,1000.22
2023-06-25T06:15:30.332Z,1000.25
2023-06-25T06:20:30.257Z,1000.24
2023-06-25T06:25:30.208Z,1000.25
2023-06-25T06:30:30.239Z,1000.30
2023-06-25T06:35:30.138Z,1000.21
2023-06-25T06:40:30.112Z,1000.16
2023-06-25T06:45:30.036Z,1000.22
2023-06-25T06:50:29.962Z,1000.12
2023-06-25T06:55:29.938Z,1000.09
2023-06-25T07:00:29.867Z,1000.18
2023-06-25T07:05:29.893Z,1000.11
2023-06-25T07:10:29.762Z,1000.18
2023-06-25T07:15:29.864Z,1000.22
2023-06-25T07:20:29.747Z,1000.10
2023-06-25T07:25:29.624Z,1000.10
2023-06-25T07:30:29.574Z,1000.18
2023-06-25T07:35:29.540Z,1000.09
2023-06-25T07:40:29.471Z,1000.04
2023-06-25T07:45:29.441Z,1000.17
2023-06-25T07:50:29.411Z,1000.09
2023-06-25T07:55:29.343Z,1000.05
2023-06-25T08:00:29.282Z,1000.05
2023-06-25T08:05:29.221Z,1000.02
2023-06-25T08:10:29.193Z,999.97
2023-06-25T08:15:29.149Z,1000.00
2023-06-25T08:20:29.133Z,999.95
2023-06-25T08:25:29.025Z,999.98
2023-06-25T08:30:28.984Z,1000.01
2023-06-25T08:35:28.964Z,999.95
2023-06-25T08:40:28.886Z,999.93
2023-06-25T08:45:28.837Z,999.91
2023-06-25T08:50:28.790Z,999.92
2023-06-25T08:55:28.750Z,999.86
2023-06-25T09:00:28.770Z,999.89
2023-06-25T09:05:28.640Z,999.87
2023-06-25T09:10:28.578Z,999.83
2023-06-25T09:15:28.604Z,999.82
2023-06-25T09:20:28.473Z,999.78
2023-06-25T09:25:28.431Z,999.68
2023-06-25T09:30:28.392Z,999.68
2023-06-25T09:35:28.343Z,999.67
2023-06-25T09:40:28.276Z,999.61
2023-06-25T09:45:28.224Z,999.52
2023-06-25T09:50:28.182Z,999.53
2023-06-25T09:55:28.143Z,999.46
2023-06-25T10:00:28.117Z,999.41
2023-06-25T10:05:28.036Z,999.40
2023-06-25T10:10:27.983Z,999.44
2023-06-25T10:15:28.052Z,999.37
2023-06-25T10:20:34.946Z,999.30
2023-06-25T10:25:27.807Z,999.23
2023-06-25T10:30:27.797Z,999.17
2023-06-25T10:35:27.733Z,999.09
2023-06-25T10:40:27.667Z,999.00
2023-06-25T10:45:27.626Z,999.05
2023-06-25T10:50:27.565Z,998.97
2023-06-25T10:55:27.554Z,998.92
2023-06-25T11:00:27.450Z,998.85
2023-06-25T11:05:27.417Z,998.89
2023-06-25T11:10:27.358Z,998.85
2023-06-25T11:15:27.334Z,998.78
2023-06-25T11:20:28.659Z,998.75
2023-06-25T11:25:27.230Z,998.69
2023-06-25T11:30:27.148Z,998.63
2023-06-25T11:35:27.135Z,998.59
2023-06-25T11:40:27.058Z,998.45
2023-06-25T11:45:27.021Z,998.55
2023-06-25T11:50:26.949Z,998.52
2023-06-25T11:55:26.959Z,998.52
2023-06-25T12:00:26.841Z,998.49
2023-06-25T12:05:26.816Z,998.37
2023-06-25T12:10:26.759Z,998.37
2023-06-25T12:15:26.706Z,998.29
2023-06-25T12:20:26.661Z,998.28
2023-06-25T12:25:26.600Z,998.17
2023-06-25T12:30:26.571Z,998.21
2023-06-25T12:35:26.522Z,998.09
2023-06-25T12:40:26.725Z,997.98
2023-06-25T12:45:26.382Z,997.99
2023-06-25T12:50:26.343Z,997.95
2023-06-25T12:55:26.336Z,997.88
2023-06-25T13:00:40.983Z,997.87
2023-06-25T13:05:27.194Z,997.78
2023-06-25T13:10:26.146Z,997.78
2023-06-25T13:15:26.120Z,997.69
2023-06-25T13:20:26.058Z,997.67
2023-06-25T13:25:25.997Z,997.66
2023-06-25T13:30:25.955Z,997.59
2023-06-25T13:35:25.923Z,997.52
2023-06-25T13:40:25.843Z,997.58
2023-06-25T13:45:26.037Z,997.46
2023-06-25T13:50:25.749Z,997.38
2023-06-25T13:55:25.710Z,997.31
2023-06-25T14:00:25.628Z,997.30
2023-06-25T14:05:25.586Z,997.27
2023-06-25T14:10:25.540Z,997.24
2023-06-25T14:15:25.583Z,997.15
2023-06-25T14:20:25.444Z,997.20
2023-06-25T14:25:25.399Z,997.13
2023-06-25T14:30:25.344Z,997.05
2023-06-25T14:35:25.316Z,996.98
2023-06-25T14:40:25.278Z,997.03
2023-06-25T14:45:25.189Z,996.93
2023-06-25T14:50:25.139Z,996.91
2023-06-25T14:55:25.112Z,996.94
2023-06-25T15:00:25.042Z,996.92
2023-06-25T15:05:24.991Z,996.82
2023-06-25T15:10:24.947Z,996.81
2023-06-25T15:15:24.901Z,996.81
2023-06-25T15:20:24.841Z,996.73
2023-06-25T15:25:24.782Z,996.65
2023-06-25T15:30:24.741Z,996.52
2023-06-25T15:35:24.855Z,996.52
2023-06-25T15:40:24.651Z,996.44
2023-06-25T15:45:24.587Z,996.40
2023-06-25T15:50:24.566Z,996.29
2023-06-25T15:55:24.548Z,996.29
2023-06-25T16:00:24.439Z,996.32
2023-06-25T16:05:24.380Z,996.18
2023-06-25T16:10:24.539Z,996.06
2023-06-25T16:15:24.314Z,996.03
2023-06-25T16:20:31.272Z,996.07
2023-06-25T16:25:24.182Z,995.95
2023-06-25T16:30:24.221Z,995.99
2023-06-25T16:35:24.102Z,995.98
2023-06-25T16:40:24.032Z,996.00
2023-06-25T16:45:23.979Z,995.97
2023-06-25T16:50:23.932Z,995.94
2023-06-25T16:55:23.909Z,995.97
2023-06-25T17:00:23.827Z,995.89
2023-06-25T17:05:23.775Z,995.88
2023-06-25T17:10:23.767Z,995.86
2023-06-25T17:15:23.734Z,995.77
2023-06-25T17:20:23.642Z,995.72
2023-06-25T17:25:23.580Z,995.73
2023-06-25T17:30:23.514Z,995.70
2023-06-25T17:35:23.491Z,995.69
2023-06-25T17:40:23.415Z,995.59
2023-06-25T17:45:23.378Z,995.63
2023-06-25T17:50:23.306Z,995.60
2023-06-25T17:55:23.286Z,995.64
2023-06-25T18:00:23.207Z,995.65
2023-06-25T18:05:23.163Z,995.70
2023-06-25T18:10:23.104Z,995.68
2023-06-25T18:15:23.096Z,995.63
2023-06-25T18:20:23.001Z,995.64
2023-06-25T18:25:22.954Z,995.59
2023-06-25T18:30:22.891Z,995.62
2023-06-25T18:35:22.859Z,995.60
2023-06-25T18:40:23.977Z,995.52
2023-06-25T18:45:22.742Z,995.49
2023-06-25T18:50:22.684Z,995.44
2023-06-25T18:55:22.755Z,995.42
2023-06-25T19:00:22.586Z,995.28
2023-06-25T19:05:22.540Z,995.24
2023-06-25T19:10:22.480Z,995.24
2023-06-25T19:15:22.444Z,995.26
2023-06-25T19:20:22.388Z,995.28
2023-06-25T19:25:22.323Z,995.28
2023-06-25T19:30:22.269Z,995.23
2023-06-25T19:35:22.252Z,995.24
2023-06-25T19:40:22.172Z,995.24
2023-06-25T19:45:22.176Z,995.26
2023-06-25T19:50:22.056Z,995.31
2023-06-25T19:55:22.047Z,995.29
2023-06-25T20:00:21.958Z,995.31
2023-06-25T20:05:21.969Z,995.31
2023-06-25T20:10:21.838Z,995.26
2023-06-25T20:15:21.810Z,995.25
2023-06-25T20:20:21.743Z,995.22
2023-06-25T20:25:21.691Z,995.31
2023-06-25T20:30:21.632Z,995.17
2023-06-25T20:35:21.602Z,995.21
2023-06-25T20:40:21.530Z,995.19
2023-06-25T20:45:21.470Z,995.23
2023-06-25T20:50:21.455Z,995.13
2023-06-25T20:55:21.393Z,995.24
2023-06-25T21:00:21.328Z,995.16
2023-06-25T21:05:21.265Z,995.14
2023-06-25T21:10:21.218Z,995.13
2023-06-25T21:15:21.193Z,995.14
2023-06-25T21:20:21.102Z,995.08
2023-06-25T21:25:21.054Z,995.08
2023-06-25T21:30:21.015Z,995.02
2023-06-25T21:35:20.993Z,995.07
2023-06-25T21:40:20.895Z,995.03
2023-06-25T21:45:20.837Z,995.04
2023-06-25T21:50:20.806Z,994.97
2023-06-25T21:55:20.758Z,995.01
2023-06-25T22:00:20.672Z,995.00
2023-06-25T22:05:20.631Z,994.96
2023-06-25T22:10:20.586Z,994.99
2023-06-25T22:15:20.527Z,995.04
2023-06-25T22:20:27.488Z,995.06
2023-06-25T22:25:20.407Z,995.14
2023-06-25T22:30:20.459Z,995.03
2023-06-25T22:35:20.316Z,995.08
2023-06-25T22:40:20.236Z,995.09
2023-06-25T22:45:20.185Z,995.04
2023-06-25T22:50:20.154Z,995.02
2023-06-25T22:55:20.124Z,995.06
2023-06-25T23:00:20.025Z,995.02
2023-06-25T23:05:19.968Z,995.02
2023-06-25T23:10:19.909Z,995.03
2023-06-25T23:15:19.884Z,994.95
2023-06-25T23:20:19.799Z,994.86
2023-06-25T23:25:28.463Z,994.82
